createdAt,value
2022-11-22T00:00:28.470Z,298.11
2022-11-22T00:01:23.528Z,294.90
2022-11-22T00:02:18.651Z,297.57
2022-11-22T00:03:13.583Z,299.20
2022-11-22T00:04:08.683Z,300.84
2022-11-22T00:05:03.705Z,296.23
2022-11-22T00:05:58.753Z,299.47
2022-11-22T00:06:53.777Z,300.29
2022-11-22T00:07:48.926Z,301.95
2022-11-22T00:08:44.059Z,300.57
2022-11-22T00:09:39.030Z,301.67
2022-11-22T00:10:34.081Z,305.32
2022-11-22T00:11:29.217Z,310.23
2022-11-22T00:12:24.787Z,307.90
2022-11-22T00:13:19.994Z,311.41
2022-11-22T00:14:15.105Z,310.82
2022-11-22T00:15:10.755Z,313.49
2022-11-22T00:16:08.097Z,309.94
2022-11-22T00:17:03.375Z,312.30
2022-11-22T00:17:58.495Z,312.89
2022-11-22T00:18:53.613Z,310.82
2022-11-22T00:19:48.937Z,313.49
2022-11-22T00:20:44.224Z,312.30
2022-11-22T00:21:39.248Z,313.49
2022-11-22T00:22:36.440Z,312.30
2022-11-22T00:23:31.100Z,313.19
2022-11-22T00:24:25.321Z,314.69
2022-11-22T00:25:21.217Z,318.67
2022-11-22T00:26:16.333Z,320.22
2022-11-22T00:27:11.470Z,325.95
2022-11-22T00:28:07.371Z,332.22
2022-11-22T00:29:02.530Z,335.96
2022-11-22T00:29:58.530Z,341.20
2022-11-22T00:30:53.539Z,346.61
2022-11-22T00:31:48.809Z,351.43
2022-11-22T00:32:44.609Z,351.43
2022-11-22T00:33:39.905Z,352.95
2022-11-22T00:34:35.102Z,352.95
2022-11-22T00:35:31.455Z,352.95
2022-11-22T00:36:26.689Z,354.47
2022-11-22T00:37:22.560Z,351.43
2022-11-22T00:38:17.715Z,352.57
2022-11-22T00:39:12.979Z,350.68
2022-11-22T00:40:08.736Z,349.56
2022-11-22T00:41:03.892Z,349.19
2022-11-22T00:42:00.706Z,348.82
2022-11-22T00:42:54.861Z,352.57
2022-11-22T00:43:50.270Z,354.47
2022-11-22T00:44:46.778Z,353.33
2022-11-22T00:45:42.076Z,356.78
2022-11-22T00:46:37.220Z,355.62
2022-11-22T00:47:33.703Z,356.01
2022-11-22T00:48:28.821Z,362.30
2022-11-22T00:49:24.627Z,369.23
2022-11-22T00:50:19.698Z,377.73
2022-11-22T00:51:14.930Z,385.45
2022-11-22T00:52:10.602Z,392.95
2022-11-22T00:53:05.783Z,398.35
2022-11-22T00:54:01.474Z,403.41
2022-11-22T00:54:56.618Z,408.60
2022-11-22T00:55:51.907Z,410.11
2022-11-22T00:56:47.617Z,413.16
2022-11-22T00:57:42.761Z,417.03
2022-11-22T00:58:37.980Z,417.29
2022-11-22T00:59:34.305Z,412.39
2022-11-22T01:00:29.592Z,407.10
2022-11-22T01:01:25.499Z,407.85
2022-11-22T01:02:20.656Z,402.92
2022-11-22T01:03:15.805Z,400.74
2022-11-22T01:04:11.694Z,398.11
2022-11-22T01:05:06.860Z,396.92
2022-11-22T01:06:02.857Z,393.64
2022-11-22T01:06:57.927Z,393.41
2022-11-22T01:07:53.141Z,396.69
2022-11-22T01:08:48.236Z,400.26
2022-11-22T01:09:43.350Z,402.19
2022-11-22T01:10:38.415Z,407.60
2022-11-22T01:11:33.472Z,410.61
2022-11-22T01:12:28.545Z,415.21
2022-11-22T01:13:23.571Z,418.60
2022-11-22T01:14:18.569Z,420.71
2022-11-22T01:15:13.586Z,421.78
2022-11-22T01:16:13.984Z,428.01
2022-11-22T01:17:09.249Z,431.89
2022-11-22T01:18:04.496Z,440.45
2022-11-22T01:19:00.200Z,440.45
2022-11-22T01:19:55.329Z,443.67
2022-11-22T01:20:50.459Z,449.65
2022-11-22T01:21:46.777Z,450.26
2022-11-22T01:22:42.052Z,451.48
2022-11-22T01:23:37.828Z,452.40
2022-11-22T01:24:33.964Z,453.32
2022-11-22T01:25:28.105Z,450.56
2022-11-22T01:26:23.331Z,452.09
2022-11-22T01:27:18.554Z,443.96
2022-11-22T01:28:13.650Z,448.74
2022-11-22T01:29:08.756Z,445.45
2022-11-22T01:30:04.616Z,445.45
2022-11-22T01:30:59.754Z,444.26
2022-11-22T01:31:55.010Z,441.90
2022-11-22T01:32:50.681Z,441.03
2022-11-22T01:33:45.839Z,439.28
2022-11-22T01:34:40.989Z,440.45
2022-11-22T01:35:36.083Z,441.61
2022-11-22T01:36:31.174Z,438.99
2022-11-22T01:37:26.220Z,441.03
2022-11-22T01:38:21.318Z,442.20
2022-11-22T01:39:16.406Z,447.54
2022-11-22T01:40:11.446Z,450.26
2022-11-22T01:41:06.402Z,448.44
2022-11-22T01:42:01.419Z,450.56
2022-11-22T01:42:56.503Z,453.01
2022-11-22T01:43:51.615Z,453.01
2022-11-22T01:44:46.633Z,453.32
2022-11-22T01:45:41.755Z,453.32
2022-11-22T01:46:36.869Z,451.17
2022-11-22T01:47:31.835Z,454.25
2022-11-22T01:48:26.920Z,455.49
2022-11-22T01:49:21.944Z,455.49
2022-11-22T01:50:17.048Z,457.36
2022-11-22T01:51:12.153Z,458.30
2022-11-22T01:52:07.272Z,458.62
2022-11-22T01:53:02.324Z,459.25
2022-11-22T01:53:58.113Z,458.30
2022-11-22T01:54:52.420Z,458.30
2022-11-22T01:55:47.443Z,458.93
2022-11-22T01:56:46.050Z,456.42
2022-11-22T01:57:41.152Z,458.62
2022-11-22T01:58:36.190Z,454.56
2022-11-22T01:59:31.498Z,456.73
2022-11-22T02:00:26.432Z,461.48
2022-11-22T02:01:21.632Z,460.52
2022-11-22T02:02:16.549Z,460.84
2022-11-22T02:03:11.610Z,460.84
2022-11-22T02:04:06.721Z,459.25
2022-11-22T02:05:01.879Z,464.37
2022-11-22T02:05:57.022Z,462.44
2022-11-22T02:06:51.899Z,461.80
2022-11-22T02:07:46.960Z,462.44
2022-11-22T02:08:41.893Z,463.40
2022-11-22T02:09:37.040Z,461.80
2022-11-22T02:10:32.710Z,459.89
2022-11-22T02:11:33.651Z,461.80
2022-11-22T02:12:24.722Z,458.62
2022-11-22T02:13:18.723Z,461.16
2022-11-22T02:14:13.970Z,461.48
2022-11-22T02:15:10.712Z,457.99
2022-11-22T02:16:05.716Z,458.62
2022-11-22T02:17:01.043Z,456.73
2022-11-22T02:17:57.144Z,457.05
2022-11-22T02:18:52.253Z,459.89
2022-11-22T02:19:48.061Z,462.44
2022-11-22T02:20:43.188Z,463.08
2022-11-22T02:21:38.587Z,467.62
2022-11-22T02:22:34.260Z,469.27
2022-11-22T02:23:29.523Z,472.26
2022-11-22T02:24:25.327Z,474.28
2022-11-22T02:25:20.570Z,474.28
2022-11-22T02:26:15.806Z,480.08
2022-11-22T02:27:11.526Z,481.82
2022-11-22T02:28:06.736Z,486.74
2022-11-22T02:29:01.841Z,486.03
2022-11-22T02:29:58.160Z,485.68
2022-11-22T02:30:53.427Z,488.17
2022-11-22T02:31:49.206Z,492.13
2022-11-22T02:32:44.486Z,495.79
2022-11-22T02:33:39.643Z,495.05
2022-11-22T02:34:35.476Z,500.25
2022-11-22T02:35:30.590Z,498.75
2022-11-22T02:36:26.385Z,502.51
2022-11-22T02:37:22.414Z,502.89
2022-11-22T02:38:16.708Z,507.87
2022-11-22T02:39:12.666Z,501.38
2022-11-22T02:40:07.880Z,503.65
2022-11-22T02:41:03.151Z,510.20
2022-11-22T02:41:58.690Z,508.64
2022-11-22T02:42:53.796Z,506.71
2022-11-22T02:43:49.091Z,510.20
2022-11-22T02:44:45.296Z,514.93
2022-11-22T02:45:40.578Z,517.33
2022-11-22T02:46:36.353Z,518.94
2022-11-22T02:47:31.492Z,520.56
2022-11-22T02:48:26.597Z,528.39
2022-11-22T02:49:23.137Z,526.31
2022-11-22T02:50:17.574Z,528.39
2022-11-22T02:51:13.477Z,528.39
2022-11-22T02:52:08.594Z,533.89
2022-11-22T02:53:03.830Z,534.75
2022-11-22T02:53:58.775Z,533.47
2022-11-22T02:54:53.874Z,532.61
2022-11-22T02:55:48.946Z,530.50
2022-11-22T02:56:44.173Z,534.75
2022-11-22T02:57:39.560Z,533.47
2022-11-22T02:58:34.500Z,536.90
2022-11-22T02:59:29.683Z,539.07
2022-11-22T03:00:28.272Z,537.77
2022-11-22T03:01:23.459Z,540.38
2022-11-22T03:02:18.940Z,541.70
2022-11-22T03:03:13.983Z,540.82
2022-11-22T03:04:10.899Z,537.34
2022-11-22T03:05:05.605Z,537.77
2022-11-22T03:06:00.589Z,538.64
2022-11-22T03:06:55.736Z,542.58
2022-11-22T03:07:50.938Z,536.04
2022-11-22T03:08:50.669Z,536.04
2022-11-22T03:09:43.309Z,541.70
2022-11-22T03:10:37.524Z,543.91
2022-11-22T03:11:32.688Z,542.14
2022-11-22T03:12:27.815Z,543.02
2022-11-22T03:13:23.015Z,540.38
2022-11-22T03:14:19.078Z,538.64
2022-11-22T03:15:14.427Z,543.02
2022-11-22T03:16:09.637Z,537.34
2022-11-22T03:17:04.864Z,538.64
2022-11-22T03:17:59.931Z,542.58
2022-11-22T03:18:55.230Z,542.14
2022-11-22T03:19:50.337Z,539.51
2022-11-22T03:20:45.780Z,539.51
2022-11-22T03:21:40.941Z,538.64
2022-11-22T03:22:36.220Z,535.61
2022-11-22T03:23:31.309Z,538.64
2022-11-22T03:24:26.412Z,536.47
2022-11-22T03:25:21.472Z,528.81
2022-11-22T03:26:16.857Z,533.04
2022-11-22T03:27:11.828Z,532.61
2022-11-22T03:28:07.060Z,534.32
2022-11-22T03:29:02.163Z,536.47
2022-11-22T03:29:57.360Z,535.18
2022-11-22T03:30:52.520Z,532.19
2022-11-22T03:31:47.719Z,530.92
2022-11-22T03:32:42.778Z,529.65
2022-11-22T03:33:38.187Z,527.56
2022-11-22T03:34:33.360Z,527.56
2022-11-22T03:35:28.318Z,522.60
2022-11-22T03:36:23.497Z,525.48
2022-11-22T03:37:18.776Z,524.65
2022-11-22T03:38:13.856Z,529.23
2022-11-22T03:39:08.955Z,529.65
2022-11-22T03:40:04.203Z,528.81
2022-11-22T03:40:59.344Z,527.56
2022-11-22T03:41:54.660Z,526.72
2022-11-22T03:42:49.606Z,530.92
2022-11-22T03:43:44.716Z,531.34
2022-11-22T03:44:39.938Z,531.34
2022-11-22T03:45:35.153Z,528.39
2022-11-22T03:46:30.251Z,528.39
2022-11-22T03:47:25.434Z,450.26
2022-11-22T03:48:20.595Z,447.24
2022-11-22T03:49:15.721Z,458.93
2022-11-22T03:50:11.171Z,470.93
2022-11-22T03:51:10.254Z,472.26
2022-11-22T03:52:05.401Z,479.05
2022-11-22T03:53:00.520Z,486.03
2022-11-22T03:53:55.538Z,476.31
2022-11-22T03:54:50.648Z,483.91
2022-11-22T03:55:45.823Z,486.74
2022-11-22T03:56:40.803Z,461.48
2022-11-22T03:57:35.815Z,465.34
2022-11-22T03:58:30.810Z,465.34
2022-11-22T03:59:25.916Z,460.52
2022-11-22T04:00:21.046Z,457.99
2022-11-22T04:01:16.932Z,459.25
2022-11-22T04:02:11.205Z,462.44
2022-11-22T04:03:06.208Z,466.64
2022-11-22T04:04:01.292Z,464.69
2022-11-22T04:04:56.333Z,462.12
2022-11-22T04:05:51.465Z,458.62
2022-11-22T04:06:46.604Z,458.62
2022-11-22T04:07:41.659Z,461.80
2022-11-22T04:08:36.874Z,456.11
2022-11-22T04:09:32.296Z,459.25
2022-11-22T04:10:26.994Z,459.25
2022-11-22T04:11:22.055Z,451.48
2022-11-22T04:12:17.080Z,451.78
2022-11-22T04:13:12.051Z,449.05
2022-11-22T04:14:07.599Z,448.14
2022-11-22T04:15:02.799Z,452.09
2022-11-22T04:15:58.118Z,449.95
2022-11-22T04:16:53.658Z,453.63
2022-11-22T04:17:48.912Z,450.26
2022-11-22T04:18:44.655Z,447.54
2022-11-22T04:19:39.927Z,445.74
2022-11-22T04:20:35.447Z,450.56
2022-11-22T04:21:31.012Z,430.21
2022-11-22T04:22:26.176Z,417.03
2022-11-22T04:23:21.324Z,413.67
2022-11-22T04:24:17.666Z,410.86
2022-11-22T04:25:12.834Z,407.85
2022-11-22T04:26:08.705Z,406.61
2022-11-22T04:27:03.851Z,409.85
2022-11-22T04:27:59.021Z,413.92
2022-11-22T04:29:09.226Z,416.77
2022-11-22T04:29:51.010Z,413.67
2022-11-22T04:30:45.777Z,410.36
2022-11-22T04:31:40.892Z,409.60
2022-11-22T04:32:36.251Z,419.66
2022-11-22T04:33:31.948Z,433.01
2022-11-22T04:34:27.140Z,436.41
2022-11-22T04:35:22.432Z,436.41
2022-11-22T04:36:18.689Z,362.70
2022-11-22T04:37:13.992Z,381.70
2022-11-22T04:38:09.779Z,380.39
2022-11-22T04:39:04.933Z,381.27
2022-11-22T04:40:00.041Z,386.79
2022-11-22T04:40:55.902Z,399.06
2022-11-22T04:41:51.010Z,399.78
2022-11-22T04:42:46.998Z,391.10
2022-11-22T04:43:41.960Z,386.57
2022-11-22T04:44:37.216Z,379.96
2022-11-22T04:45:33.096Z,389.73
2022-11-22T04:46:28.457Z,397.40
2022-11-22T04:47:23.584Z,408.60
2022-11-22T04:48:20.042Z,420.18
2022-11-22T04:49:15.206Z,427.46
2022-11-22T04:50:11.061Z,429.66
2022-11-22T04:51:06.112Z,433.85
2022-11-22T04:52:01.557Z,436.70
2022-11-22T04:52:57.152Z,442.49
2022-11-22T04:53:52.411Z,451.48
2022-11-22T04:54:48.252Z,450.26
2022-11-22T04:55:43.420Z,453.63
2022-11-22T04:56:38.656Z,464.37
2022-11-22T04:57:34.363Z,467.95
2022-11-22T04:58:29.490Z,471.93
2022-11-22T04:59:24.665Z,472.26
2022-11-22T05:00:21.048Z,470.26
2022-11-22T05:01:16.456Z,467.62
2022-11-22T05:02:12.183Z,468.61
2022-11-22T05:03:07.587Z,465.99
2022-11-22T05:04:02.656Z,465.34
2022-11-22T05:04:58.412Z,465.02
2022-11-22T05:05:53.665Z,468.61
2022-11-22T05:06:48.791Z,472.93
2022-11-22T05:07:43.974Z,478.02
2022-11-22T05:08:39.748Z,478.36
2022-11-22T05:09:35.053Z,476.99
2022-11-22T05:10:30.077Z,467.95
2022-11-22T05:11:26.898Z,460.20
2022-11-22T05:12:21.833Z,462.44
2022-11-22T05:13:17.626Z,463.72
2022-11-22T05:14:12.900Z,469.27
2022-11-22T05:15:08.081Z,473.60
2022-11-22T05:16:03.956Z,476.31
2022-11-22T05:16:59.138Z,482.16
2022-11-22T05:17:55.147Z,478.36
2022-11-22T05:18:50.277Z,465.34
2022-11-22T05:19:49.154Z,453.01
2022-11-22T05:20:41.361Z,455.80
2022-11-22T05:21:36.603Z,465.34
2022-11-22T05:22:31.854Z,464.37
2022-11-22T05:23:28.108Z,470.26
2022-11-22T05:24:23.238Z,474.28
2022-11-22T05:25:24.030Z,478.70
2022-11-22T05:26:14.729Z,473.27
2022-11-22T05:27:08.959Z,478.70
2022-11-22T05:28:03.960Z,477.67
2022-11-22T05:28:59.038Z,474.95
2022-11-22T05:29:54.060Z,472.93
2022-11-22T05:30:49.298Z,473.27
2022-11-22T05:31:49.840Z,469.60
2022-11-22T05:32:40.402Z,472.93
2022-11-22T05:33:34.365Z,477.67
2022-11-22T05:34:29.443Z,468.94
2022-11-22T05:35:24.506Z,472.26
2022-11-22T05:36:19.608Z,468.94
2022-11-22T05:37:18.245Z,456.73
2022-11-22T05:38:13.553Z,462.76
2022-11-22T05:39:08.745Z,465.02
2022-11-22T05:40:04.173Z,464.05
2022-11-22T05:40:59.361Z,456.11
2022-11-22T05:41:54.324Z,461.16
2022-11-22T05:42:49.378Z,458.30
2022-11-22T05:43:44.477Z,459.57
2022-11-22T05:44:39.500Z,457.67
2022-11-22T05:45:34.560Z,463.08
2022-11-22T05:46:29.802Z,474.28
2022-11-22T05:47:24.845Z,469.60
2022-11-22T05:48:19.928Z,472.93
2022-11-22T05:49:14.970Z,460.52
2022-11-22T05:50:10.088Z,453.32
2022-11-22T05:51:05.110Z,453.63
2022-11-22T05:52:00.277Z,449.95
2022-11-22T05:52:55.174Z,453.01
2022-11-22T05:53:50.216Z,441.90
2022-11-22T05:54:45.287Z,292.53
2022-11-22T05:55:40.295Z,268.80
2022-11-22T05:56:35.490Z,289.69
2022-11-22T05:57:30.486Z,324.66
2022-11-22T05:58:25.574Z,334.93
2022-11-22T05:59:20.583Z,334.59
2022-11-22T06:00:15.634Z,358.34
2022-11-22T06:01:10.704Z,379.31
2022-11-22T06:02:05.840Z,397.87
2022-11-22T06:03:00.725Z,407.60
2022-11-22T06:03:55.772Z,423.12
2022-11-22T06:04:50.984Z,441.61
2022-11-22T06:05:46.012Z,454.87
2022-11-22T06:06:41.024Z,451.48
2022-11-22T06:07:36.315Z,451.48
2022-11-22T06:08:31.129Z,441.61
2022-11-22T06:09:26.198Z,440.74
2022-11-22T06:10:21.251Z,443.67
2022-11-22T06:11:16.359Z,445.45
2022-11-22T06:12:11.370Z,452.09
2022-11-22T06:13:06.523Z,467.95
2022-11-22T06:14:01.557Z,476.31
2022-11-22T06:14:56.651Z,476.99
2022-11-22T06:15:53.283Z,488.52
2022-11-22T06:16:48.370Z,496.16
2022-11-22T06:17:43.420Z,452.40
2022-11-22T06:18:38.396Z,416.51
2022-11-22T06:19:33.374Z,435.55
2022-11-22T06:20:28.468Z,459.25
2022-11-22T06:21:23.464Z,470.93
2022-11-22T06:22:18.554Z,470.60
2022-11-22T06:23:13.521Z,470.26
2022-11-22T06:24:08.627Z,470.26
2022-11-22T06:25:03.703Z,473.60
2022-11-22T06:25:58.822Z,462.44
2022-11-22T06:26:54.571Z,400.74
2022-11-22T06:27:49.634Z,398.58
2022-11-22T06:28:44.970Z,399.06
2022-11-22T06:29:40.622Z,368.40
2022-11-22T06:30:35.871Z,335.62
2022-11-22T06:31:31.697Z,334.25
2022-11-22T06:32:26.867Z,224.48
2022-11-22T06:33:22.289Z,167.54
2022-11-22T06:34:18.190Z,143.12
2022-11-22T06:35:13.453Z,140.35
2022-11-22T06:36:08.716Z,139.64
2022-11-22T06:37:05.197Z,147.81
2022-11-22T06:38:00.785Z,151.98
2022-11-22T06:38:56.286Z,161.08
2022-11-22T06:39:51.524Z,165.55
2022-11-22T06:40:46.859Z,175.84
2022-11-22T06:41:42.680Z,184.19
2022-11-22T06:42:37.858Z,193.50
2022-11-22T06:43:33.675Z,206.54
2022-11-22T06:44:28.879Z,219.38
2022-11-22T06:45:24.380Z,230.96
2022-11-22T06:46:20.255Z,233.26
2022-11-22T06:47:15.577Z,243.65
2022-11-22T06:48:10.826Z,250.92
2022-11-22T06:49:07.377Z,264.05
2022-11-22T06:50:02.608Z,278.38
2022-11-22T06:50:58.519Z,288.67
2022-11-22T06:51:53.691Z,289.43
2022-11-22T06:52:49.423Z,297.03
2022-11-22T06:53:47.946Z,310.23
2022-11-22T06:54:40.241Z,314.09
2022-11-22T06:55:50.131Z,320.85
2022-11-22T06:56:32.535Z,335.27
2022-11-22T06:57:27.238Z,344.42
2022-11-22T06:58:22.635Z,352.95
2022-11-22T06:59:18.513Z,361.10
2022-11-22T07:00:13.859Z,371.32
2022-11-22T07:01:09.224Z,372.16
2022-11-22T07:02:06.795Z,376.00
2022-11-22T07:03:00.342Z,375.14
2022-11-22T07:03:55.798Z,376.43
2022-11-22T07:05:23.364Z,375.14
2022-11-22T07:05:48.452Z,379.96
2022-11-22T07:06:43.355Z,386.12
2022-11-22T07:07:38.742Z,392.72
2022-11-22T07:08:34.342Z,391.33
2022-11-22T07:09:30.165Z,377.30
2022-11-22T07:10:25.289Z,383.68
2022-11-22T07:11:21.233Z,384.34
2022-11-22T07:12:16.434Z,389.51
2022-11-22T07:13:11.879Z,398.11
2022-11-22T07:14:09.155Z,400.02
2022-11-22T07:15:01.985Z,406.85
2022-11-22T07:15:57.081Z,417.03
2022-11-22T07:16:52.157Z,421.51
2022-11-22T07:17:47.259Z,430.49
2022-11-22T07:18:42.321Z,436.70
2022-11-22T07:19:37.704Z,436.98
2022-11-22T07:20:32.458Z,426.91
2022-11-22T07:21:27.576Z,423.12
2022-11-22T07:22:25.927Z,417.03
2022-11-22T07:23:20.009Z,420.98
2022-11-22T07:24:15.122Z,425.55
2022-11-22T07:25:10.197Z,428.56
2022-11-22T07:26:05.408Z,420.98
2022-11-22T07:27:00.477Z,424.19
2022-11-22T07:27:55.713Z,428.28
2022-11-22T07:28:50.575Z,423.92
2022-11-22T07:29:45.549Z,429.66
2022-11-22T07:30:43.969Z,435.27
2022-11-22T07:31:36.221Z,436.98
2022-11-22T07:32:31.908Z,437.27
2022-11-22T07:33:30.753Z,431.89
2022-11-22T07:34:25.906Z,415.21
2022-11-22T07:35:21.293Z,408.60
2022-11-22T07:36:17.253Z,415.47
2022-11-22T07:37:12.640Z,422.05
2022-11-22T07:38:08.026Z,433.01
2022-11-22T07:39:03.728Z,440.74
2022-11-22T07:39:58.561Z,443.37
2022-11-22T07:40:53.552Z,440.74
2022-11-22T07:41:48.660Z,449.05
2022-11-22T07:42:43.627Z,444.55
2022-11-22T07:43:38.871Z,431.89
2022-11-22T07:44:33.848Z,442.78
2022-11-22T07:45:29.219Z,453.63
2022-11-22T07:46:24.164Z,456.11
2022-11-22T07:47:23.068Z,449.05
2022-11-22T07:48:16.344Z,432.17
2022-11-22T07:49:11.736Z,434.70
2022-11-22T07:50:10.508Z,436.41
2022-11-22T07:51:06.073Z,436.41
2022-11-22T07:52:01.385Z,436.70
2022-11-22T07:52:56.796Z,436.41
2022-11-22T07:53:52.259Z,438.71
2022-11-22T07:54:47.828Z,442.78
2022-11-22T07:55:43.076Z,454.25
2022-11-22T07:56:38.558Z,464.05
2022-11-22T07:57:33.538Z,466.97
2022-11-22T07:58:29.529Z,474.28
2022-11-22T07:59:23.600Z,480.08
2022-11-22T08:00:18.710Z,479.39
2022-11-22T08:01:13.819Z,480.08
2022-11-22T08:02:08.895Z,481.47
2022-11-22T08:03:03.807Z,481.12
2022-11-22T08:03:58.922Z,481.12
2022-11-22T08:04:53.986Z,485.32
2022-11-22T08:05:49.093Z,481.82
2022-11-22T08:06:43.995Z,476.99
2022-11-22T08:07:39.100Z,458.62
2022-11-22T08:08:34.153Z,447.24
2022-11-22T08:09:29.423Z,443.67
2022-11-22T08:10:25.389Z,429.11
2022-11-22T08:11:20.940Z,432.17
2022-11-22T08:12:16.218Z,447.84
2022-11-22T08:13:11.675Z,455.49
2022-11-22T08:14:07.113Z,464.69
2022-11-22T08:15:02.670Z,458.93
2022-11-22T08:16:03.680Z,453.94
2022-11-22T08:16:54.501Z,461.48
2022-11-22T08:17:48.945Z,469.60
2022-11-22T08:18:44.075Z,459.25
2022-11-22T08:19:39.152Z,461.16
2022-11-22T08:20:34.466Z,462.12
2022-11-22T08:21:29.915Z,463.72
2022-11-22T08:22:24.370Z,461.48
2022-11-22T08:23:19.470Z,452.40
2022-11-22T08:24:14.581Z,447.84
2022-11-22T08:25:09.564Z,450.26
2022-11-22T08:26:04.765Z,450.87
2022-11-22T08:26:59.762Z,443.96
2022-11-22T08:27:54.807Z,425.28
2022-11-22T08:28:49.992Z,412.39
2022-11-22T08:29:44.965Z,408.10
2022-11-22T08:30:40.073Z,415.21
2022-11-22T08:31:35.298Z,410.61
2022-11-22T08:32:30.431Z,395.98
2022-11-22T08:33:25.791Z,331.21
2022-11-22T08:34:21.319Z,334.93
2022-11-22T08:35:16.587Z,326.27
2022-11-22T08:36:12.059Z,328.56
2022-11-22T08:37:07.317Z,334.59
2022-11-22T08:38:02.715Z,345.51
2022-11-22T08:38:58.083Z,355.24
2022-11-22T08:39:53.534Z,354.85
2022-11-22T08:40:49.008Z,358.34
2022-11-22T08:41:44.287Z,368.40
2022-11-22T08:42:39.686Z,370.90
2022-11-22T08:43:35.063Z,371.74
2022-11-22T08:44:30.544Z,379.96
2022-11-22T08:45:25.832Z,375.14
2022-11-22T08:46:21.250Z,357.56
2022-11-22T08:47:16.668Z,349.93
2022-11-22T08:48:12.052Z,343.70
2022-11-22T08:49:07.146Z,342.27
2022-11-22T08:50:02.137Z,328.89
2022-11-22T08:50:57.267Z,337.34
2022-11-22T08:51:52.257Z,338.39
2022-11-22T08:52:47.296Z,338.73
2022-11-22T08:53:42.309Z,343.34
2022-11-22T08:54:38.178Z,324.98
2022-11-22T08:55:32.956Z,238.86
2022-11-22T08:56:28.023Z,217.78
2022-11-22T08:57:23.267Z,240.79
2022-11-22T08:58:18.123Z,257.21
2022-11-22T08:59:13.190Z,269.69
2022-11-22T09:00:08.808Z,265.97
2022-11-22T09:01:03.628Z,267.93
2022-11-22T09:01:58.401Z,286.15
2022-11-22T09:02:53.361Z,298.38
2022-11-22T09:03:48.474Z,313.79
2022-11-22T09:04:43.553Z,326.92
2022-11-22T09:08:25.360Z,129.96
2022-11-22T09:09:37.002Z,142.02
2022-11-22T09:10:15.571Z,152.12
2022-11-22T09:11:09.673Z,149.13
2022-11-22T09:12:06.567Z,186.45
2022-11-22T09:13:01.712Z,201.71
2022-11-22T09:13:56.728Z,215.63
2022-11-22T09:14:51.815Z,235.77
2022-11-22T09:15:46.799Z,241.68
2022-11-22T09:16:42.030Z,238.52
2022-11-22T09:17:36.896Z,255.21
2022-11-22T09:18:31.944Z,272.37
2022-11-22T09:19:27.020Z,290.71
2022-11-22T09:20:22.104Z,303.35
2022-11-22T09:21:17.167Z,297.03
2022-11-22T09:22:12.283Z,310.52
2022-11-22T09:23:07.365Z,325.30
2022-11-22T09:24:02.659Z,334.25
2022-11-22T09:25:00.177Z,336.30
2022-11-22T09:25:55.555Z,322.11
2022-11-22T09:26:51.104Z,324.66
2022-11-22T09:27:46.435Z,329.88
2022-11-22T09:28:41.774Z,335.96
2022-11-22T09:29:37.810Z,331.88
2022-11-22T09:30:32.357Z,326.60
2022-11-22T09:31:27.821Z,321.79
2022-11-22T09:32:23.264Z,321.48
2022-11-22T09:33:18.660Z,320.85
2022-11-22T09:34:14.060Z,316.82
2022-11-22T09:35:09.469Z,314.69
2022-11-22T09:36:04.835Z,320.54
2022-11-22T09:37:00.236Z,324.02
2022-11-22T09:37:55.724Z,325.62
2022-11-22T09:38:50.605Z,320.54
2022-11-22T09:39:48.446Z,321.79
2022-11-22T09:40:40.742Z,317.43
2022-11-22T09:41:35.770Z,316.52
2022-11-22T09:42:30.956Z,317.74
2022-11-22T09:43:25.895Z,318.98
2022-11-22T09:44:20.935Z,315.91
2022-11-22T09:45:16.009Z,309.94
2022-11-22T09:46:11.034Z,310.52
2022-11-22T09:47:06.149Z,315.60
2022-11-22T09:48:09.486Z,318.36
2022-11-22T09:48:59.429Z,321.48
2022-11-22T09:49:53.488Z,327.25
2022-11-22T09:50:48.491Z,330.55
2022-11-22T09:51:44.705Z,331.55
2022-11-22T09:52:40.158Z,333.57
2022-11-22T09:53:35.605Z,336.65
2022-11-22T09:54:31.011Z,338.39
2022-11-22T09:55:26.622Z,314.09
2022-11-22T09:56:22.246Z,301.40
2022-11-22T09:57:17.411Z,305.32
2022-11-22T09:58:12.860Z,316.52
2022-11-22T09:59:08.419Z,327.90
2022-11-22T10:00:03.736Z,333.91
2022-11-22T10:00:59.233Z,335.62
2022-11-22T10:01:54.470Z,337.34
2022-11-22T10:02:59.976Z,332.22
2022-11-22T10:03:46.280Z,330.88
2022-11-22T10:04:40.292Z,327.90
2022-11-22T10:05:35.275Z,325.95
2022-11-22T10:06:30.304Z,326.60
2022-11-22T10:07:25.369Z,330.21
2022-11-22T10:08:20.571Z,332.89
2022-11-22T10:09:15.374Z,334.93
2022-11-22T10:10:10.388Z,333.23
2022-11-22T10:11:08.046Z,328.89
2022-11-22T10:12:03.052Z,326.27
2022-11-22T10:12:58.163Z,326.60
2022-11-22T10:13:54.092Z,327.90
2022-11-22T10:14:48.243Z,330.55
2022-11-22T10:15:43.303Z,330.55
2022-11-22T10:16:38.322Z,323.70
2022-11-22T10:17:33.368Z,315.60
2022-11-22T10:18:28.523Z,315.91
2022-11-22T10:19:23.541Z,320.54
2022-11-22T10:20:18.683Z,322.11
2022-11-22T10:21:13.712Z,326.27
2022-11-22T10:22:13.117Z,330.21
2022-11-22T10:23:08.257Z,337.00
2022-11-22T10:24:03.311Z,340.85
2022-11-22T10:24:58.444Z,346.97
2022-11-22T10:25:53.393Z,344.79
2022-11-22T10:26:48.542Z,344.42
2022-11-22T10:27:43.536Z,345.88
2022-11-22T10:28:38.736Z,344.42
2022-11-22T10:29:33.753Z,340.85
2022-11-22T10:30:28.761Z,339.44
2022-11-22T10:31:23.755Z,322.74
2022-11-22T10:32:18.786Z,304.19
2022-11-22T10:33:13.842Z,305.32
2022-11-22T10:34:13.314Z,303.63
2022-11-22T10:35:08.683Z,301.40
2022-11-22T10:36:03.952Z,304.76
2022-11-22T10:36:59.395Z,312.00
2022-11-22T10:37:54.736Z,319.29
2022-11-22T10:38:50.235Z,324.02
2022-11-22T10:39:45.507Z,325.95
2022-11-22T10:40:40.635Z,328.56
2022-11-22T10:41:35.722Z,331.88
2022-11-22T10:42:30.980Z,335.96
2022-11-22T10:43:26.206Z,339.44
2022-11-22T10:44:21.183Z,342.63
2022-11-22T10:45:16.227Z,330.21
2022-11-22T10:46:11.254Z,333.23
2022-11-22T10:47:06.288Z,341.91
2022-11-22T10:48:01.377Z,350.31
2022-11-22T10:48:56.535Z,357.17
2022-11-22T10:49:51.619Z,345.88
2022-11-22T10:50:46.733Z,314.69
2022-11-22T10:51:41.687Z,305.32
2022-11-22T10:52:36.798Z,305.32
2022-11-22T10:53:31.806Z,300.57
2022-11-22T10:54:26.920Z,304.19
2022-11-22T10:55:22.468Z,308.77
2022-11-22T10:56:17.740Z,312.60
2022-11-22T10:57:13.480Z,315.60
2022-11-22T10:58:08.974Z,324.02
2022-11-22T10:59:04.211Z,330.88
2022-11-22T10:59:59.824Z,333.91
2022-11-22T11:00:54.984Z,335.62
2022-11-22T11:01:50.448Z,343.34
2022-11-22T11:02:45.632Z,352.19
2022-11-22T11:03:41.148Z,361.10
2022-11-22T11:04:36.625Z,370.06
2022-11-22T11:05:32.780Z,340.85
2022-11-22T11:06:43.652Z,346.61
2022-11-22T11:07:23.047Z,355.24
2022-11-22T11:08:42.095Z,351.81
2022-11-22T11:10:03.074Z,346.61
2022-11-22T11:10:13.026Z,330.88
2022-11-22T11:11:03.301Z,322.74
2022-11-22T11:11:57.377Z,325.62
2022-11-22T11:12:55.326Z,323.06
2022-11-22T11:13:50.678Z,311.70
2022-11-22T11:14:46.087Z,322.42
2022-11-22T11:15:41.513Z,340.14
2022-11-22T11:16:36.985Z,363.10
2022-11-22T11:17:32.484Z,365.93
2022-11-22T11:18:27.697Z,384.56
2022-11-22T11:19:23.145Z,379.53
2022-11-22T11:20:18.408Z,399.30
2022-11-22T11:21:13.763Z,425.01
2022-11-22T11:22:08.884Z,435.55
2022-11-22T11:23:14.686Z,441.90
2022-11-22T11:24:00.019Z,444.26
2022-11-22T11:24:54.103Z,448.14
2022-11-22T11:25:50.332Z,435.55
2022-11-22T11:26:45.735Z,414.70
2022-11-22T11:27:41.226Z,407.60
2022-11-22T11:28:36.989Z,407.85
2022-11-22T11:29:37.390Z,408.35
2022-11-22T11:30:28.762Z,417.55
2022-11-22T11:31:23.341Z,431.05
2022-11-22T11:32:18.859Z,431.61
2022-11-22T11:33:13.606Z,451.78